sensor_id;sensor_type;location;lat;lon;timestamp;P1;durP1;ratioP1;P2;durP2;ratioP2
8993;SDS011;4532;50.886;4.700;2022-10-30T00:00:52;11.23;;;7.22;;
8993;SDS011;4532;50.886;4.700;2022-10-30T00:03:19;13.43;;;6.97;;
8993;SDS011;4532;50.886;4.700;2022-10-30T00:05:47;14.68;;;8.02;;
8993;SDS011;4532;50.886;4.700;2022-10-30T00:08:16;14.45;;;7.15;;
8993;SDS011;4532;50.886;4.700;2022-10-30T00:10:45;13.23;;;6.53;;
8993;SDS011;4532;50.886;4.700;2022-10-30T00:13:16;12.60;;;6.73;;
8993;SDS011;4532;50.886;4.700;2022-10-30T00:15:47;13.80;;;6.63;;
8993;SDS011;4532;50.886;4.700;2022-10-30T00:18:16;11.97;;;6.77;;
8993;SDS011;4532;50.886;4.700;2022-10-30T00:20:43;14.97;;;7.13;;
8993;SDS011;4532;50.886;4.700;2022-10-30T00:23:11;15.38;;;6.97;;
8993;SDS011;4532;50.886;4.700;2022-10-30T00:25:40;9.43;;;7.00;;
8993;SDS011;4532;50.886;4.700;2022-10-30T00:28:07;14.10;;;6.95;;
8993;SDS011;4532;50.886;4.700;2022-10-30T00:30:37;11.50;;;6.30;;
8993;SDS011;4532;50.886;4.700;2022-10-30T00:33:04;12.00;;;7.38;;
8993;SDS011;4532;50.886;4.700;2022-10-30T00:35:33;12.30;;;6.47;;
8993;SDS011;4532;50.886;4.700;2022-10-30T00:38:01;15.35;;;7.10;;
8993;SDS011;4532;50.886;4.700;2022-10-30T00:40:28;9.63;;;6.65;;
8993;SDS011;4532;50.886;4.700;2022-10-30T00:42:55;10.03;;;6.20;;
8993;SDS011;4532;50.886;4.700;2022-10-30T00:45:22;13.82;;;6.80;;
8993;SDS011;4532;50.886;4.700;2022-10-30T00:47:54;11.88;;;6.25;;
8993;SDS011;4532;50.886;4.700;2022-10-30T00:50:29;14.43;;;5.80;;
8993;SDS011;4532;50.886;4.700;2022-10-30T00:53:01;14.20;;;6.13;;
8993;SDS011;4532;50.886;4.700;2022-10-30T00:55:33;9.10;;;5.67;;
8993;SDS011;4532;50.886;4.700;2022-10-30T00:58:16;11.33;;;5.80;;
8993;SDS011;4532;50.886;4.700;2022-10-30T01:00:50;10.13;;;5.70;;
8993;SDS011;4532;50.886;4.700;2022-10-30T01:03:22;10.65;;;5.80;;
8993;SDS011;4532;50.886;4.700;2022-10-30T01:05:56;8.40;;;5.70;;
8993;SDS011;4532;50.886;4.700;2022-10-30T01:08:25;9.77;;;6.10;;
8993;SDS011;4532;50.886;4.700;2022-10-30T01:10:53;11.73;;;5.93;;
8993;SDS011;4532;50.886;4.700;2022-10-30T01:13:22;10.53;;;5.67;;
8993;SDS011;4532;50.886;4.700;2022-10-30T01:24:33;11.07;;;5.23;;
8993;SDS011;4532;50.886;4.700;2022-10-30T01:27:23;11.57;;;5.57;;
8993;SDS011;4532;50.886;4.700;2022-10-30T01:35:53;13.90;;;5.83;;
8993;SDS011;4532;50.886;4.700;2022-10-30T01:38:36;11.20;;;6.37;;
8993;SDS011;4532;50.886;4.700;2022-10-30T01:41:07;9.40;;;5.77;;
8993;SDS011;4532;50.886;4.700;2022-10-30T01:43:37;11.70;;;6.87;;
8993;SDS011;4532;50.886;4.700;2022-10-30T01:51:58;9.30;;;5.50;;
8993;SDS011;4532;50.886;4.700;2022-10-30T01:54:32;13.73;;;6.80;;
8993;SDS011;4532;50.886;4.700;2022-10-30T01:57:33;8.20;;;5.90;;
8993;SDS011;4532;50.886;4.700;2022-10-30T02:00:08;12.23;;;6.03;;
8993;SDS011;4532;50.886;4.700;2022-10-30T02:02:39;10.70;;;5.83;;
8993;SDS011;4532;50.886;4.700;2022-10-30T02:05:10;16.03;;;5.70;;
8993;SDS011;4532;50.886;4.700;2022-10-30T02:07:47;11.70;;;5.93;;
8993;SDS011;4532;50.886;4.700;2022-10-30T02:10:14;10.05;;;6.05;;
8993;SDS011;4532;50.886;4.700;2022-10-30T02:12:42;15.15;;;5.90;;
8993;SDS011;4532;50.886;4.700;2022-10-30T02:15:09;9.77;;;5.93;;
8993;SDS011;4532;50.886;4.700;2022-10-30T02:17:37;10.80;;;5.83;;
8993;SDS011;4532;50.886;4.700;2022-10-30T02:20:06;11.73;;;5.73;;
8993;SDS011;4532;50.886;4.700;2022-10-30T02:22:39;11.27;;;5.60;;
8993;SDS011;4532;50.886;4.700;2022-10-30T02:25:09;15.13;;;6.00;;
8993;SDS011;4532;50.886;4.700;2022-10-30T02:27:36;12.63;;;6.93;;
8993;SDS011;4532;50.886;4.700;2022-10-30T02:30:03;10.57;;;6.00;;
8993;SDS011;4532;50.886;4.700;2022-10-30T02:32:32;13.93;;;5.93;;
8993;SDS011;4532;50.886;4.700;2022-10-30T02:35:02;10.17;;;5.90;;
8993;SDS011;4532;50.886;4.700;2022-10-30T02:37:30;12.87;;;6.27;;
8993;SDS011;4532;50.886;4.700;2022-10-30T02:40:02;10.33;;;5.97;;
8993;SDS011;4532;50.886;4.700;2022-10-30T02:42:30;11.13;;;5.23;;
8993;SDS011;4532;50.886;4.700;2022-10-30T02:44:59;9.63;;;6.10;;
8993;SDS011;4532;50.886;4.700;2022-10-30T02:47:29;13.73;;;6.03;;
8993;SDS011;4532;50.886;4.700;2022-10-30T02:49:57;14.00;;;6.30;;
8993;SDS011;4532;50.886;4.700;2022-10-30T02:52:24;10.87;;;6.30;;
8993;SDS011;4532;50.886;4.700;2022-10-30T02:54:51;10.87;;;5.27;;
8993;SDS011;4532;50.886;4.700;2022-10-30T02:57:18;13.87;;;6.27;;
8993;SDS011;4532;50.886;4.700;2022-10-30T02:59:45;10.23;;;5.87;;
8993;SDS011;4532;50.886;4.700;2022-10-30T03:02:12;14.83;;;5.90;;
8993;SDS011;4532;50.886;4.700;2022-10-30T03:04:40;12.53;;;5.97;;
8993;SDS011;4532;50.886;4.700;2022-10-30T03:07:07;10.03;;;6.07;;
8993;SDS011;4532;50.886;4.700;2022-10-30T03:09:34;10.40;;;5.90;;
8993;SDS011;4532;50.886;4.700;2022-10-30T03:12:01;13.95;;;6.25;;
8993;SDS011;4532;50.886;4.700;2022-10-30T03:14:28;10.53;;;5.63;;
8993;SDS011;4532;50.886;4.700;2022-10-30T03:16:58;12.70;;;5.70;;
8993;SDS011;4532;50.886;4.700;2022-10-30T03:19:25;9.37;;;5.73;;
8993;SDS011;4532;50.886;4.700;2022-10-30T03:21:53;12.13;;;6.20;;
8993;SDS011;4532;50.886;4.700;2022-10-30T03:24:20;12.63;;;5.45;;
8993;SDS011;4532;50.886;4.700;2022-10-30T03:26:47;12.03;;;5.67;;
8993;SDS011;4532;50.886;4.700;2022-10-30T03:29:14;13.37;;;5.90;;
8993;SDS011;4532;50.886;4.700;2022-10-30T03:31:41;12.80;;;6.40;;
8993;SDS011;4532;50.886;4.700;2022-10-30T03:34:08;10.80;;;5.53;;
8993;SDS011;4532;50.886;4.700;2022-10-30T03:36:36;11.47;;;5.60;;
8993;SDS011;4532;50.886;4.700;2022-10-30T03:39:05;9.50;;;5.73;;
8993;SDS011;4532;50.886;4.700;2022-10-30T03:41:32;15.02;;;6.30;;
8993;SDS011;4532;50.886;4.700;2022-10-30T03:44:00;12.40;;;6.23;;
8993;SDS011;4532;50.886;4.700;2022-10-30T03:46:29;9.87;;;5.47;;
8993;SDS011;4532;50.886;4.700;2022-10-30T03:48:59;9.23;;;5.20;;
8993;SDS011;4532;50.886;4.700;2022-10-30T03:51:29;11.60;;;6.03;;
8993;SDS011;4532;50.886;4.700;2022-10-30T03:53:58;12.03;;;6.00;;
8993;SDS011;4532;50.886;4.700;2022-10-30T03:56:25;11.48;;;6.18;;
8993;SDS011;4532;50.886;4.700;2022-10-30T03:58:54;9.60;;;6.03;;
8993;SDS011;4532;50.886;4.700;2022-10-30T04:01:24;10.53;;;5.57;;
8993;SDS011;4532;50.886;4.700;2022-10-30T04:03:52;11.87;;;6.00;;
8993;SDS011;4532;50.886;4.700;2022-10-30T04:06:19;9.20;;;5.30;;
8993;SDS011;4532;50.886;4.700;2022-10-30T04:08:46;10.27;;;5.40;;
8993;SDS011;4532;50.886;4.700;2022-10-30T04:11:13;10.90;;;5.63;;
8993;SDS011;4532;50.886;4.700;2022-10-30T04:13:40;10.13;;;5.73;;
8993;SDS011;4532;50.886;4.700;2022-10-30T04:16:07;11.50;;;6.17;;
8993;SDS011;4532;50.886;4.700;2022-10-30T04:18:35;10.97;;;6.30;;
8993;SDS011;4532;50.886;4.700;2022-10-30T04:21:04;7.93;;;5.20;;
8993;SDS011;4532;50.886;4.700;2022-10-30T04:23:36;13.53;;;6.10;;
8993;SDS011;4532;50.886;4.700;2022-10-30T04:26:05;7.77;;;5.90;;
8993;SDS011;4532;50.886;4.700;2022-10-30T04:28:32;11.43;;;5.63;;
8993;SDS011;4532;50.886;4.700;2022-10-30T04:31:02;8.73;;;5.87;;
8993;SDS011;4532;50.886;4.700;2022-10-30T04:33:29;9.97;;;6.20;;
8993;SDS011;4532;50.886;4.700;2022-10-30T04:35:56;10.60;;;6.20;;
8993;SDS011;4532;50.886;4.700;2022-10-30T04:38:23;9.00;;;5.23;;
8993;SDS011;4532;50.886;4.700;2022-10-30T04:40:52;12.23;;;5.80;;
8993;SDS011;4532;50.886;4.700;2022-10-30T04:43:22;9.53;;;5.50;;
8993;SDS011;4532;50.886;4.700;2022-10-30T04:45:49;9.30;;;5.97;;
8993;SDS011;4532;50.886;4.700;2022-10-30T04:48:17;11.40;;;5.80;;
8993;SDS011;4532;50.886;4.700;2022-10-30T04:50:45;10.83;;;5.60;;
8993;SDS011;4532;50.886;4.700;2022-10-30T04:53:13;10.43;;;6.30;;
8993;SDS011;4532;50.886;4.700;2022-10-30T04:55:42;10.20;;;6.27;;
8993;SDS011;4532;50.886;4.700;2022-10-30T04:58:10;10.13;;;5.57;;
8993;SDS011;4532;50.886;4.700;2022-10-30T05:00:37;14.40;;;6.20;;
8993;SDS011;4532;50.886;4.700;2022-10-30T05:03:04;11.00;;;5.77;;
8993;SDS011;4532;50.886;4.700;2022-10-30T05:05:34;10.50;;;6.17;;
8993;SDS011;4532;50.886;4.700;2022-10-30T05:08:02;12.67;;;5.97;;
8993;SDS011;4532;50.886;4.700;2022-10-30T05:10:29;11.53;;;6.10;;
8993;SDS011;4532;50.886;4.700;2022-10-30T05:12:56;11.13;;;6.47;;
8993;SDS011;4532;50.886;4.700;2022-10-30T05:15:28;9.77;;;5.97;;
8993;SDS011;4532;50.886;4.700;2022-10-30T05:17:55;10.60;;;6.10;;
8993;SDS011;4532;50.886;4.700;2022-10-30T05:20:23;12.27;;;5.93;;
8993;SDS011;4532;50.886;4.700;2022-10-30T05:22:54;9.77;;;5.83;;
8993;SDS011;4532;50.886;4.700;2022-10-30T05:25:22;14.90;;;5.90;;
8993;SDS011;4532;50.886;4.700;2022-10-30T05:28:02;10.70;;;5.63;;
8993;SDS011;4532;50.886;4.700;2022-10-30T05:30:30;8.63;;;5.90;;
8993;SDS011;4532;50.886;4.700;2022-10-30T05:33:00;15.20;;;6.20;;
8993;SDS011;4532;50.886;4.700;2022-10-30T05:35:30;14.13;;;6.37;;
8993;SDS011;4532;50.886;4.700;2022-10-30T05:37:59;12.93;;;5.60;;
8993;SDS011;4532;50.886;4.700;2022-10-30T05:40:29;12.43;;;6.23;;
8993;SDS011;4532;50.886;4.700;2022-10-30T05:42:56;8.73;;;5.47;;
8993;SDS011;4532;50.886;4.700;2022-10-30T05:45:24;15.43;;;6.53;;
8993;SDS011;4532;50.886;4.700;2022-10-30T05:47:55;11.33;;;6.03;;
8993;SDS011;4532;50.886;4.700;2022-10-30T05:50:29;13.20;;;6.60;;
8993;SDS011;4532;50.886;4.700;2022-10-30T05:53:01;10.53;;;5.80;;
8993;SDS011;4532;50.886;4.700;2022-10-30T05:55:31;11.87;;;5.93;;
8993;SDS011;4532;50.886;4.700;2022-10-30T05:57:59;15.40;;;6.27;;
8993;SDS011;4532;50.886;4.700;2022-10-30T06:00:32;10.07;;;5.77;;
8993;SDS011;4532;50.886;4.700;2022-10-30T06:03:01;10.73;;;5.50;;
8993;SDS011;4532;50.886;4.700;2022-10-30T06:05:31;10.27;;;6.00;;
8993;SDS011;4532;50.886;4.700;2022-10-30T06:08:00;13.43;;;5.97;;
8993;SDS011;4532;50.886;4.700;2022-10-30T06:10:28;11.83;;;6.10;;
8993;SDS011;4532;50.886;4.700;2022-10-30T06:12:56;9.53;;;6.50;;
8993;SDS011;4532;50.886;4.700;2022-10-30T06:15:25;15.03;;;6.47;;
8993;SDS011;4532;50.886;4.700;2022-10-30T06:17:53;13.30;;;6.03;;
8993;SDS011;4532;50.886;4.700;2022-10-30T06:20:25;10.73;;;6.40;;
8993;SDS011;4532;50.886;4.700;2022-10-30T06:23:00;12.10;;;6.37;;
8993;SDS011;4532;50.886;4.700;2022-10-30T06:25:30;10.87;;;6.47;;
8993;SDS011;4532;50.886;4.700;2022-10-30T06:28:06;15.23;;;6.27;;
8993;SDS011;4532;50.886;4.700;2022-10-30T06:30:34;13.63;;;6.63;;
8993;SDS011;4532;50.886;4.700;2022-10-30T06:33:05;17.30;;;6.60;;
8993;SDS011;4532;50.886;4.700;2022-10-30T06:35:33;12.97;;;6.23;;
8993;SDS011;4532;50.886;4.700;2022-10-30T06:38:00;13.17;;;5.60;;
8993;SDS011;4532;50.886;4.700;2022-10-30T06:40:27;16.60;;;6.57;;
8993;SDS011;4532;50.886;4.700;2022-10-30T06:42:59;10.60;;;6.90;;
8993;SDS011;4532;50.886;4.700;2022-10-30T06:45:27;13.57;;;6.80;;
8993;SDS011;4532;50.886;4.700;2022-10-30T06:47:54;9.30;;;5.97;;
8993;SDS011;4532;50.886;4.700;2022-10-30T06:50:22;11.43;;;6.00;;
8993;SDS011;4532;50.886;4.700;2022-10-30T06:52:50;10.57;;;6.57;;
8993;SDS011;4532;50.886;4.700;2022-10-30T06:55:19;11.37;;;6.50;;
8993;SDS011;4532;50.886;4.700;2022-10-30T06:57:52;11.53;;;6.27;;
8993;SDS011;4532;50.886;4.700;2022-10-30T07:00:20;12.60;;;6.60;;
8993;SDS011;4532;50.886;4.700;2022-10-30T07:02:54;14.73;;;6.87;;
8993;SDS011;4532;50.886;4.700;2022-10-30T07:05:26;10.60;;;5.93;;
8993;SDS011;4532;50.886;4.700;2022-10-30T07:07:56;11.80;;;6.23;;
8993;SDS011;4532;50.886;4.700;2022-10-30T07:10:26;12.87;;;6.20;;
8993;SDS011;4532;50.886;4.700;2022-10-30T07:12:53;11.93;;;6.37;;
8993;SDS011;4532;50.886;4.700;2022-10-30T07:15:22;11.97;;;5.83;;
8993;SDS011;4532;50.886;4.700;2022-10-30T07:17:51;10.83;;;7.27;;
8993;SDS011;4532;50.886;4.700;2022-10-30T07:20:19;9.67;;;5.97;;
8993;SDS011;4532;50.886;4.700;2022-10-30T07:22:46;9.57;;;6.20;;
8993;SDS011;4532;50.886;4.700;2022-10-30T07:25:16;10.53;;;6.30;;
8993;SDS011;4532;50.886;4.700;2022-10-30T07:27:44;13.27;;;5.87;;
8993;SDS011;4532;50.886;4.700;2022-10-30T07:30:15;10.93;;;5.90;;
8993;SDS011;4532;50.886;4.700;2022-10-30T07:32:47;12.47;;;5.90;;
8993;SDS011;4532;50.886;4.700;2022-10-30T07:35:27;10.10;;;6.17;;
8993;SDS011;4532;50.886;4.700;2022-10-30T07:37:55;13.57;;;6.77;;
8993;SDS011;4532;50.886;4.700;2022-10-30T07:40:26;10.07;;;6.00;;
8993;SDS011;4532;50.886;4.700;2022-10-30T07:42:54;10.17;;;5.97;;
8993;SDS011;4532;50.886;4.700;2022-10-30T07:45:26;11.47;;;6.03;;
8993;SDS011;4532;50.886;4.700;2022-10-30T07:47:54;11.93;;;6.63;;
8993;SDS011;4532;50.886;4.700;2022-10-30T07:50:23;12.13;;;6.13;;
8993;SDS011;4532;50.886;4.700;2022-10-30T07:52:50;12.77;;;6.90;;
8993;SDS011;4532;50.886;4.700;2022-10-30T07:55:17;13.00;;;6.97;;
8993;SDS011;4532;50.886;4.700;2022-10-30T07:57:44;10.93;;;5.90;;
8993;SDS011;4532;50.886;4.700;2022-10-30T08:00:12;12.43;;;6.50;;
8993;SDS011;4532;50.886;4.700;2022-10-30T08:02:42;10.63;;;5.90;;
8993;SDS011;4532;50.886;4.700;2022-10-30T08:05:10;11.57;;;6.27;;
8993;SDS011;4532;50.886;4.700;2022-10-30T08:07:37;11.27;;;6.67;;
8993;SDS011;4532;50.886;4.700;2022-10-30T08:10:06;9.77;;;5.80;;
8993;SDS011;4532;50.886;4.700;2022-10-30T08:12:36;11.60;;;6.07;;
8993;SDS011;4532;50.886;4.700;2022-10-30T08:15:05;10.60;;;5.73;;
8993;SDS011;4532;50.886;4.700;2022-10-30T08:17:39;8.53;;;5.90;;
8993;SDS011;4532;50.886;4.700;2022-10-30T08:20:08;13.83;;;6.30;;
8993;SDS011;4532;50.886;4.700;2022-10-30T08:22:46;9.43;;;5.93;;
8993;SDS011;4532;50.886;4.700;2022-10-30T08:25:15;10.37;;;6.30;;
8993;SDS011;4532;50.886;4.700;2022-10-30T08:27:50;14.80;;;6.23;;
8993;SDS011;4532;50.886;4.700;2022-10-30T08:30:19;12.30;;;7.10;;
8993;SDS011;4532;50.886;4.700;2022-10-30T08:32:46;12.30;;;6.10;;
8993;SDS011;4532;50.886;4.700;2022-10-30T08:35:16;12.60;;;6.17;;
8993;SDS011;4532;50.886;4.700;2022-10-30T08:37:45;10.03;;;6.47;;
8993;SDS011;4532;50.886;4.700;2022-10-30T08:40:13;13.83;;;6.40;;
8993;SDS011;4532;50.886;4.700;2022-10-30T08:42:40;10.80;;;6.43;;
8993;SDS011;4532;50.886;4.700;2022-10-30T08:45:07;11.43;;;6.07;;
8993;SDS011;4532;50.886;4.700;2022-10-30T08:47:34;12.20;;;7.00;;
8993;SDS011;4532;50.886;4.700;2022-10-30T08:50:01;12.67;;;6.30;;
8993;SDS011;4532;50.886;4.700;2022-10-30T08:52:29;12.27;;;6.30;;
8993;SDS011;4532;50.886;4.700;2022-10-30T08:54:56;9.47;;;5.83;;
8993;SDS011;4532;50.886;4.700;2022-10-30T08:57:23;12.50;;;6.20;;
8993;SDS011;4532;50.886;4.700;2022-10-30T08:59:50;11.27;;;6.83;;
8993;SDS011;4532;50.886;4.700;2022-10-30T09:02:20;12.30;;;5.87;;
8993;SDS011;4532;50.886;4.700;2022-10-30T09:04:47;9.33;;;6.27;;
8993;SDS011;4532;50.886;4.700;2022-10-30T09:07:14;11.17;;;5.80;;
8993;SDS011;4532;50.886;4.700;2022-10-30T09:09:42;11.93;;;6.70;;
8993;SDS011;4532;50.886;4.700;2022-10-30T09:12:09;12.50;;;6.83;;
8993;SDS011;4532;50.886;4.700;2022-10-30T09:14:39;12.57;;;6.43;;
8993;SDS011;4532;50.886;4.700;2022-10-30T09:17:08;15.07;;;7.03;;
8993;SDS011;4532;50.886;4.700;2022-10-30T09:19:35;13.13;;;6.33;;
8993;SDS011;4532;50.886;4.700;2022-10-30T09:22:03;13.10;;;6.30;;
8993;SDS011;4532;50.886;4.700;2022-10-30T09:24:30;11.13;;;6.30;;
8993;SDS011;4532;50.886;4.700;2022-10-30T09:26:57;11.50;;;6.23;;
8993;SDS011;4532;50.886;4.700;2022-10-30T09:29:24;11.13;;;5.80;;
8993;SDS011;4532;50.886;4.700;2022-10-30T09:31:54;11.37;;;5.70;;
8993;SDS011;4532;50.886;4.700;2022-10-30T09:34:21;10.97;;;6.00;;
8993;SDS011;4532;50.886;4.700;2022-10-30T09:36:49;10.77;;;5.27;;
8993;SDS011;4532;50.886;4.700;2022-10-30T09:39:16;8.47;;;5.20;;
8993;SDS011;4532;50.886;4.700;2022-10-30T09:50:24;11.97;;;5.47;;
8993;SDS011;4532;50.886;4.700;2022-10-30T09:55:44;9.03;;;5.30;;
8993;SDS011;4532;50.886;4.700;2022-10-30T10:01:46;13.80;;;5.97;;
8993;SDS011;4532;50.886;4.700;2022-10-30T10:04:26;12.80;;;5.63;;
8993;SDS011;4532;50.886;4.700;2022-10-30T10:07:01;13.07;;;5.40;;
8993;SDS011;4532;50.886;4.700;2022-10-30T10:09:38;9.98;;;5.28;;
8993;SDS011;4532;50.886;4.700;2022-10-30T10:12:11;11.30;;;5.43;;
8993;SDS011;4532;50.886;4.700;2022-10-30T10:14:46;8.95;;;5.22;;
8993;SDS011;4532;50.886;4.700;2022-10-30T10:23:17;9.70;;;5.40;;
8993;SDS011;4532;50.886;4.700;2022-10-30T10:25:52;11.40;;;4.70;;
8993;SDS011;4532;50.886;4.700;2022-10-30T10:28:40;10.52;;;5.10;;
8993;SDS011;4532;50.886;4.700;2022-10-30T10:33:51;8.60;;;4.97;;
8993;SDS011;4532;50.886;4.700;2022-10-30T10:44:49;10.65;;;4.05;;
8993;SDS011;4532;50.886;4.700;2022-10-30T10:53:26;8.03;;;4.40;;
8993;SDS011;4532;50.886;4.700;2022-10-30T10:56:14;9.73;;;4.88;;
8993;SDS011;4532;50.886;4.700;2022-10-30T10:58:52;12.90;;;4.70;;
8993;SDS011;4532;50.886;4.700;2022-10-30T11:01:26;8.52;;;4.68;;
8993;SDS011;4532;50.886;4.700;2022-10-30T11:04:13;9.85;;;4.32;;
8993;SDS011;4532;50.886;4.700;2022-10-30T11:06:50;6.97;;;4.80;;
8993;SDS011;4532;50.886;4.700;2022-10-30T11:09:22;8.32;;;4.25;;
8993;SDS011;4532;50.886;4.700;2022-10-30T11:11:51;7.72;;;4.20;;
8993;SDS011;4532;50.886;4.700;2022-10-30T11:14:22;11.50;;;5.40;;
8993;SDS011;4532;50.886;4.700;2022-10-30T11:17:03;6.95;;;4.60;;
8993;SDS011;4532;50.886;4.700;2022-10-30T11:19:53;8.43;;;4.78;;
8993;SDS011;4532;50.886;4.700;2022-10-30T11:22:48;6.78;;;4.80;;
8993;SDS011;4532;50.886;4.700;2022-10-30T11:25:20;8.82;;;4.80;;
8993;SDS011;4532;50.886;4.700;2022-10-30T11:27:56;9.35;;;4.55;;
8993;SDS011;4532;50.886;4.700;2022-10-30T11:30:30;9.48;;;4.43;;
8993;SDS011;4532;50.886;4.700;2022-10-30T11:33:19;9.68;;;4.78;;
8993;SDS011;4532;50.886;4.700;2022-10-30T11:35:48;8.07;;;4.43;;
8993;SDS011;4532;50.886;4.700;2022-10-30T11:38:18;9.25;;;4.68;;
8993;SDS011;4532;50.886;4.700;2022-10-30T11:40:47;12.27;;;4.45;;
8993;SDS011;4532;50.886;4.700;2022-10-30T11:43:19;7.55;;;4.30;;
8993;SDS011;4532;50.886;4.700;2022-10-30T11:45:50;6.90;;;4.25;;
8993;SDS011;4532;50.886;4.700;2022-10-30T11:48:20;8.02;;;4.55;;
8993;SDS011;4532;50.886;4.700;2022-10-30T11:50:54;10.23;;;4.53;;
8993;SDS011;4532;50.886;4.700;2022-10-30T11:53:37;10.05;;;4.55;;
8993;SDS011;4532;50.886;4.700;2022-10-30T11:56:13;9.65;;;5.43;;
8993;SDS011;4532;50.886;4.700;2022-10-30T11:58:43;9.48;;;4.55;;
8993;SDS011;4532;50.886;4.700;2022-10-30T12:01:19;6.82;;;4.25;;
8993;SDS011;4532;50.886;4.700;2022-10-30T12:03:49;8.88;;;4.32;;
8993;SDS011;4532;50.886;4.700;2022-10-30T12:11:30;7.82;;;4.22;;
8993;SDS011;4532;50.886;4.700;2022-10-30T12:13:59;10.35;;;4.40;;
8993;SDS011;4532;50.886;4.700;2022-10-30T12:16:27;8.15;;;4.45;;
8993;SDS011;4532;50.886;4.700;2022-10-30T12:18:57;8.18;;;4.25;;
8993;SDS011;4532;50.886;4.700;2022-10-30T12:21:35;5.68;;;3.85;;
8993;SDS011;4532;50.886;4.700;2022-10-30T12:24:05;8.85;;;4.15;;
8993;SDS011;4532;50.886;4.700;2022-10-30T12:26:45;12.98;;;4.57;;
8993;SDS011;4532;50.886;4.700;2022-10-30T12:29:17;12.82;;;4.40;;
8993;SDS011;4532;50.886;4.700;2022-10-30T12:31:56;10.98;;;4.50;;
8993;SDS011;4532;50.886;4.700;2022-10-30T12:34:38;9.85;;;4.88;;
8993;SDS011;4532;50.886;4.700;2022-10-30T12:42:33;8.88;;;4.70;;
8993;SDS011;4532;50.886;4.700;2022-10-30T12:47:46;7.60;;;4.25;;
8993;SDS011;4532;50.886;4.700;2022-10-30T12:52:53;10.00;;;4.93;;
8993;SDS011;4532;50.886;4.700;2022-10-30T12:55:40;12.65;;;4.55;;
8993;SDS011;4532;50.886;4.700;2022-10-30T12:58:17;8.75;;;4.53;;
8993;SDS011;4532;50.886;4.700;2022-10-30T13:01:07;12.70;;;4.38;;
8993;SDS011;4532;50.886;4.700;2022-10-30T13:03:47;9.20;;;4.70;;
8993;SDS011;4532;50.886;4.700;2022-10-30T13:06:17;11.00;;;4.68;;
8993;SDS011;4532;50.886;4.700;2022-10-30T13:11:38;12.27;;;4.30;;
8993;SDS011;4532;50.886;4.700;2022-10-30T13:14:19;7.65;;;4.00;;
8993;SDS011;4532;50.886;4.700;2022-10-30T13:16:51;11.85;;;4.70;;
8993;SDS011;4532;50.886;4.700;2022-10-30T13:19:18;8.32;;;3.97;;
8993;SDS011;4532;50.886;4.700;2022-10-30T13:21:59;14.20;;;4.63;;
8993;SDS011;4532;50.886;4.700;2022-10-30T13:30:20;10.65;;;4.82;;
8993;SDS011;4532;50.886;4.700;2022-10-30T13:32:55;8.57;;;4.68;;
8993;SDS011;4532;50.886;4.700;2022-10-30T13:46:31;9.85;;;4.88;;
8993;SDS011;4532;50.886;4.700;2022-10-30T13:52:10;11.63;;;5.10;;
8993;SDS011;4532;50.886;4.700;2022-10-30T13:54:44;9.60;;;4.45;;
8993;SDS011;4532;50.886;4.700;2022-10-30T13:57:28;12.52;;;4.65;;
8993;SDS011;4532;50.886;4.700;2022-10-30T14:03:31;8.30;;;3.95;;
8993;SDS011;4532;50.886;4.700;2022-10-30T14:11:26;10.88;;;3.90;;
8993;SDS011;4532;50.886;4.700;2022-10-30T14:14:36;6.28;;;3.90;;
8993;SDS011;4532;50.886;4.700;2022-10-30T14:20:38;6.50;;;3.42;;
8993;SDS011;4532;50.886;4.700;2022-10-30T14:22:40;10.57;;;4.18;;
8993;SDS011;4532;50.886;4.700;2022-10-30T14:25:11;7.32;;;3.70;;
8993;SDS011;4532;50.886;4.700;2022-10-30T14:27:39;8.07;;;3.40;;
8993;SDS011;4532;50.886;4.700;2022-10-30T14:30:18;7.78;;;3.47;;
8993;SDS011;4532;50.886;4.700;2022-10-30T14:32:49;7.00;;;3.65;;
8993;SDS011;4532;50.886;4.700;2022-10-30T14:35:52;7.63;;;3.42;;
8993;SDS011;4532;50.886;4.700;2022-10-30T14:38:33;9.52;;;3.90;;
8993;SDS011;4532;50.886;4.700;2022-10-30T14:41:07;9.75;;;3.45;;
8993;SDS011;4532;50.886;4.700;2022-10-30T14:47:11;8.18;;;3.97;;
8993;SDS011;4532;50.886;4.700;2022-10-30T14:49:52;7.25;;;3.22;;
8993;SDS011;4532;50.886;4.700;2022-10-30T14:58:36;10.40;;;3.40;;
8993;SDS011;4532;50.886;4.700;2022-10-30T15:01:20;9.20;;;3.60;;
8993;SDS011;4532;50.886;4.700;2022-10-30T15:04:07;10.52;;;3.60;;
8993;SDS011;4532;50.886;4.700;2022-10-30T15:07:04;9.40;;;4.38;;
8993;SDS011;4532;50.886;4.700;2022-10-30T15:09:56;10.07;;;3.60;;
8993;SDS011;4532;50.886;4.700;2022-10-30T15:15:32;11.20;;;3.80;;
8993;SDS011;4532;50.886;4.700;2022-10-30T15:18:09;8.60;;;4.45;;
8993;SDS011;4532;50.886;4.700;2022-10-30T15:20:51;14.25;;;4.78;;
8993;SDS011;4532;50.886;4.700;2022-10-30T15:23:24;13.60;;;4.88;;
8993;SDS011;4532;50.886;4.700;2022-10-30T15:26:00;15.13;;;4.53;;
8993;SDS011;4532;50.886;4.700;2022-10-30T15:28:35;12.75;;;4.28;;
8993;SDS011;4532;50.886;4.700;2022-10-30T15:31:04;11.68;;;4.68;;
8993;SDS011;4532;50.886;4.700;2022-10-30T15:33:52;10.07;;;4.68;;
8993;SDS011;4532;50.886;4.700;2022-10-30T15:36:21;9.45;;;4.90;;
8993;SDS011;4532;50.886;4.700;2022-10-30T15:39:08;17.65;;;5.93;;
8993;SDS011;4532;50.886;4.700;2022-10-30T15:44:12;10.20;;;5.50;;
8993;SDS011;4532;50.886;4.700;2022-10-30T15:46:46;16.75;;;5.55;;
8993;SDS011;4532;50.886;4.700;2022-10-30T15:49:20;12.10;;;6.10;;
8993;SDS011;4532;50.886;4.700;2022-10-30T15:52:00;12.27;;;6.25;;
8993;SDS011;4532;50.886;4.700;2022-10-30T15:54:33;13.40;;;6.07;;
8993;SDS011;4532;50.886;4.700;2022-10-30T15:57:00;12.68;;;6.05;;
8993;SDS011;4532;50.886;4.700;2022-10-30T15:59:48;13.13;;;5.55;;
8993;SDS011;4532;50.886;4.700;2022-10-30T16:02:20;12.70;;;6.82;;
8993;SDS011;4532;50.886;4.700;2022-10-30T16:04:48;15.05;;;7.28;;
8993;SDS011;4532;50.886;4.700;2022-10-30T16:07:20;14.25;;;6.68;;
8993;SDS011;4532;50.886;4.700;2022-10-30T16:09:54;11.13;;;6.30;;
8993;SDS011;4532;50.886;4.700;2022-10-30T16:12:24;16.58;;;7.72;;
8993;SDS011;4532;50.886;4.700;2022-10-30T16:15:06;11.80;;;6.38;;
8993;SDS011;4532;50.886;4.700;2022-10-30T16:17:43;13.55;;;7.25;;
8993;SDS011;4532;50.886;4.700;2022-10-30T16:20:10;14.77;;;6.60;;
8993;SDS011;4532;50.886;4.700;2022-10-30T16:22:38;12.85;;;6.50;;
8993;SDS011;4532;50.886;4.700;2022-10-30T16:25:05;10.23;;;6.40;;
8993;SDS011;4532;50.886;4.700;2022-10-30T16:27:40;10.88;;;6.03;;
8993;SDS011;4532;50.886;4.700;2022-10-30T16:30:11;11.95;;;6.10;;
8993;SDS011;4532;50.886;4.700;2022-10-30T16:32:40;12.95;;;6.32;;
8993;SDS011;4532;50.886;4.700;2022-10-30T16:35:18;12.05;;;6.80;;
8993;SDS011;4532;50.886;4.700;2022-10-30T16:37:47;15.73;;;6.68;;
8993;SDS011;4532;50.886;4.700;2022-10-30T16:40:17;8.93;;;6.40;;
8993;SDS011;4532;50.886;4.700;2022-10-30T16:42:49;12.32;;;7.03;;
8993;SDS011;4532;50.886;4.700;2022-10-30T16:47:54;13.48;;;7.03;;
8993;SDS011;4532;50.886;4.700;2022-10-30T16:50:35;14.45;;;7.85;;
8993;SDS011;4532;50.886;4.700;2022-10-30T16:53:10;12.35;;;6.78;;
8993;SDS011;4532;50.886;4.700;2022-10-30T16:55:41;13.02;;;7.03;;
8993;SDS011;4532;50.886;4.700;2022-10-30T16:58:11;14.05;;;7.38;;
8993;SDS011;4532;50.886;4.700;2022-10-30T17:00:50;15.60;;;7.70;;
8993;SDS011;4532;50.886;4.700;2022-10-30T17:03:19;11.23;;;7.28;;
8993;SDS011;4532;50.886;4.700;2022-10-30T17:06:02;11.65;;;6.97;;
8993;SDS011;4532;50.886;4.700;2022-10-30T17:08:41;14.18;;;7.50;;
8993;SDS011;4532;50.886;4.700;2022-10-30T17:11:15;17.70;;;9.07;;
8993;SDS011;4532;50.886;4.700;2022-10-30T17:16:25;15.50;;;8.68;;
8993;SDS011;4532;50.886;4.700;2022-10-30T17:18:54;14.63;;;8.07;;
8993;SDS011;4532;50.886;4.700;2022-10-30T17:21:39;17.00;;;8.50;;
8993;SDS011;4532;50.886;4.700;2022-10-30T17:24:17;13.98;;;8.95;;
8993;SDS011;4532;50.886;4.700;2022-10-30T17:26:57;12.05;;;8.15;;
8993;SDS011;4532;50.886;4.700;2022-10-30T17:32:42;13.93;;;8.27;;
8993;SDS011;4532;50.886;4.700;2022-10-30T17:35:12;15.73;;;7.85;;
8993;SDS011;4532;50.886;4.700;2022-10-30T17:37:44;18.30;;;8.85;;
8993;SDS011;4532;50.886;4.700;2022-10-30T17:40:12;11.80;;;7.88;;
8993;SDS011;4532;50.886;4.700;2022-10-30T17:42:39;13.35;;;8.57;;
8993;SDS011;4532;50.886;4.700;2022-10-30T17:45:08;12.88;;;7.78;;